Time;durP1;ratioP1;P1;durP2;ratioP2;P2;SDS_P1;SDS_P2;PMS_P1;PMS_P2;Temp;Humidity;BMP_temperature;BMP_pressure;BME280_temperature;BME280_humidity;BME280_pressure;Samples;Min_cycle;Max_cycle;Signal;HPM_P1;HPM_P2
2023/09/25 00:00:27;;;;;;;1.98;1.50;;;;;;;;;;5055788;28;20537;-59
2023/09/25 00:02:53;;;;;;;1.70;1.60;;;;;;;;;;5073308;28;20032;-59
2023/09/25 00:05:18;;;;;;;2.45;1.55;;;;;;;;;;5073453;28;20040;-59
2023/09/25 00:07:43;;;;;;;2.33;1.75;;;;;;;;;;5073438;28;20032;-60
2023/09/25 00:10:09;;;;;;;1.88;1.63;;;;;;;;;;5073700;28;20040;-59
2023/09/25 00:12:34;;;;;;;1.73;1.40;;;;;;;;;;5073582;28;20112;-60
2023/09/25 00:15:00;;;;;;;1.77;1.67;;;;;;;;;;5071875;28;20055;-59
2023/09/25 00:17:27;;;;;;;1.55;1.45;;;;;;;;;;5073059;28;20029;-59
2023/09/25 00:19:53;;;;;;;1.83;1.70;;;;;;;;;;4987938;28;20395;-59
2023/09/25 00:22:18;;;;;;;2.10;1.60;;;;;;;;;;5073554;28;20429;-59
2023/09/25 00:24:44;;;;;;;1.95;1.80;;;;;;;;;;5073442;28;20074;-59
2023/09/25 00:27:09;;;;;;;2.20;2.05;;;;;;;;;;5073285;28;20032;-59
2023/09/25 00:29:35;;;;;;;4.43;2.78;;;;;;;;;;5072923;28;20052;-59
2023/09/25 00:32:00;;;;;;;3.33;1.60;;;;;;;;;;4987295;28;20525;-59
2023/09/25 00:34:26;;;;;;;3.70;1.90;;;;;;;;;;4987763;28;20082;-59
2023/09/25 00:36:52;;;;;;;1.80;1.70;;;;;;;;;;5073067;28;20098;-60
2023/09/25 00:39:17;;;;;;;2.42;2.00;;;;;;;;;;4987732;28;20475;-60
2023/09/25 00:41:42;;;;;;;1.85;1.70;;;;;;;;;;5073388;28;20115;-60
2023/09/25 00:44:08;;;;;;;1.98;1.85;;;;;;;;;;5073323;28;20424;-60
2023/09/25 00:46:33;;;;;;;2.90;1.67;;;;;;;;;;5073218;28;20020;-59
2023/09/25 00:48:59;;;;;;;2.75;2.40;;;;;;;;;;5073143;28;20025;-59
2023/09/25 00:51:25;;;;;;;3.03;1.80;;;;;;;;;;5073187;28;20028;-59
2023/09/25 00:53:57;;;;;;;2.05;1.73;;;;;;;;;;4987180;28;20411;-59
2023/09/25 00:56:27;;;;;;;2.53;1.67;;;;;;;;;;5055822;28;20028;-62
2023/09/25 00:58:54;;;;;;;2.95;1.95;;;;;;;;;;5072626;28;20091;-62
2023/09/25 01:01:22;;;;;;;2.20;1.90;;;;;;;;;;5038701;28;20024;-63
2023/09/25 01:03:48;;;;;;;2.22;1.70;;;;;;;;;;5073019;28;20444;-63
2023/09/25 01:06:14;;;;;;;3.75;1.92;;;;;;;;;;5072637;28;20048;-62
2023/09/25 01:08:40;;;;;;;2.25;2.00;;;;;;;;;;5071408;28;20478;-62
2023/09/25 01:11:08;;;;;;;1.85;1.75;;;;;;;;;;5072918;28;20025;-62
2023/09/25 01:13:33;;;;;;;2.47;1.85;;;;;;;;;;5055031;28;20008;-62
2023/09/25 01:15:58;;;;;;;2.00;1.90;;;;;;;;;;5071778;28;20032;-63
2023/09/25 01:18:24;;;;;;;2.22;2.00;;;;;;;;;;5055903;28;20033;-63
2023/09/25 01:20:49;;;;;;;3.17;1.90;;;;;;;;;;5073507;28;20032;-63
2023/09/25 01:23:15;;;;;;;2.13;1.98;;;;;;;;;;5071991;28;20024;-63
2023/09/25 01:25:40;;;;;;;2.10;2.00;;;;;;;;;;5073565;28;20047;-63
2023/09/25 01:28:05;;;;;;;2.58;2.30;;;;;;;;;;4987311;28;20028;-63
2023/09/25 01:30:31;;;;;;;1.85;1.75;;;;;;;;;;4987423;28;20516;-62
2023/09/25 01:32:57;;;;;;;2.65;2.03;;;;;;;;;;5073725;28;20038;-62
2023/09/25 01:35:26;;;;;;;4.05;2.05;;;;;;;;;;5072932;28;20378;-62
2023/09/25 01:37:55;;;;;;;2.17;2.00;;;;;;;;;;5073232;28;20036;-62
2023/09/25 01:40:21;;;;;;;2.03;1.92;;;;;;;;;;5073151;28;20044;-61
2023/09/25 01:42:46;;;;;;;2.13;2.00;;;;;;;;;;4988428;28;20470;-62
2023/09/25 01:45:13;;;;;;;2.28;1.80;;;;;;;;;;5076625;28;20031;-62
2023/09/25 01:47:40;;;;;;;2.40;2.10;;;;;;;;;;5041888;28;20032;-62
2023/09/25 01:50:08;;;;;;;2.63;2.10;;;;;;;;;;5058877;28;20115;-62
2023/09/25 01:52:34;;;;;;;2.83;2.55;;;;;;;;;;5076800;28;20086;-62
2023/09/25 01:54:59;;;;;;;2.50;2.30;;;;;;;;;;5076689;28;20036;-62
2023/09/25 01:57:25;;;;;;;2.20;1.95;;;;;;;;;;5076193;28;20068;-62
2023/09/25 01:59:50;;;;;;;2.08;1.88;;;;;;;;;;5057973;28;20029;-62
2023/09/25 02:02:16;;;;;;;2.90;2.30;;;;;;;;;;4990367;28;20028;-62
2023/09/25 02:04:41;;;;;;;2.10;2.00;;;;;;;;;;5076305;28;20033;-62
2023/09/25 02:07:07;;;;;;;3.55;1.92;;;;;;;;;;5058331;28;20162;-62
2023/09/25 02:09:32;;;;;;;2.58;2.10;;;;;;;;;;5075944;28;20502;-62
2023/09/25 02:11:57;;;;;;;2.50;2.30;;;;;;;;;;4990220;28;20016;-62
2023/09/25 02:14:23;;;;;;;2.55;2.15;;;;;;;;;;5075954;28;20115;-62
2023/09/25 02:16:49;;;;;;;2.33;2.22;;;;;;;;;;5076228;28;20086;-62
2023/09/25 02:19:14;;;;;;;2.72;2.53;;;;;;;;;;4994084;28;20020;-62
2023/09/25 02:21:40;;;;;;;3.80;2.08;;;;;;;;;;5076019;28;20055;-62
2023/09/25 02:24:06;;;;;;;2.33;2.13;;;;;;;;;;5041493;28;20029;-62
2023/09/25 02:26:33;;;;;;;3.25;1.90;;;;;;;;;;5076252;28;20024;-62
2023/09/25 02:28:59;;;;;;;3.17;2.17;;;;;;;;;;5041384;28;20028;-63
2023/09/25 02:31:26;;;;;;;3.70;2.17;;;;;;;;;;5075908;28;20104;-63
2023/09/25 02:33:52;;;;;;;3.97;2.10;;;;;;;;;;5075881;28;20044;-63
2023/09/25 02:36:17;;;;;;;2.50;2.22;;;;;;;;;;5075871;28;20028;-63
2023/09/25 02:38:43;;;;;;;2.10;2.00;;;;;;;;;;5058034;28;20386;-63
2023/09/25 02:41:08;;;;;;;3.63;2.25;;;;;;;;;;5075414;28;20091;-63
2023/09/25 02:43:35;;;;;;;2.40;2.20;;;;;;;;;;5057864;28;20083;-63
2023/09/25 02:46:00;;;;;;;3.78;2.38;;;;;;;;;;5058354;28;20033;-63
2023/09/25 02:48:26;;;;;;;2.88;2.20;;;;;;;;;;5075998;28;20047;-63
2023/09/25 02:50:51;;;;;;;2.90;2.58;;;;;;;;;;5057370;28;20032;-63
2023/09/25 02:53:16;;;;;;;2.60;2.17;;;;;;;;;;5075338;28;20090;-63
2023/09/25 02:55:47;;;;;;;2.42;2.30;;;;;;;;;;5058056;28;20044;-63
2023/09/25 02:58:12;;;;;;;3.15;2.65;;;;;;;;;;5075241;28;20036;-62
2023/09/25 03:00:38;;;;;;;3.10;2.88;;;;;;;;;;5056956;28;20074;-62
2023/09/25 03:03:03;;;;;;;3.78;3.42;;;;;;;;;;5057451;28;20101;-62
2023/09/25 03:05:29;;;;;;;2.50;2.40;;;;;;;;;;5040266;28;20038;-62
2023/09/25 03:07:54;;;;;;;3.80;2.80;;;;;;;;;;5040332;28;20518;-62
2023/09/25 03:10:20;;;;;;;2.40;2.30;;;;;;;;;;4973716;28;20034;-64
2023/09/25 03:12:45;;;;;;;2.55;2.35;;;;;;;;;;5040250;28;20109;-63
2023/09/25 03:15:11;;;;;;;2.60;2.40;;;;;;;;;;4973916;28;20042;-63
2023/09/25 03:17:36;;;;;;;2.70;2.50;;;;;;;;;;4973418;28;20035;-62
2023/09/25 03:20:07;;;;;;;2.83;2.63;;;;;;;;;;4973244;28;20019;-62
2023/09/25 03:22:34;;;;;;;2.97;2.78;;;;;;;;;;5039863;28;20041;-61
2023/09/25 03:25:00;;;;;;;2.50;2.30;;;;;;;;;;4973909;28;20046;-62
2023/09/25 03:27:26;;;;;;;2.85;2.55;;;;;;;;;;5040028;28;20035;-62
2023/09/25 03:29:51;;;;;;;2.22;2.10;;;;;;;;;;5039943;28;20030;-62
2023/09/25 03:32:18;;;;;;;3.05;2.75;;;;;;;;;;5039780;28;20034;-62
2023/09/25 03:34:43;;;;;;;3.30;3.00;;;;;;;;;;5039827;28;20037;-62
2023/09/25 03:37:09;;;;;;;3.58;3.25;;;;;;;;;;4973246;28;20033;-62
2023/09/25 03:39:36;;;;;;;3.17;2.92;;;;;;;;;;5040129;28;20058;-62
2023/09/25 03:42:01;;;;;;;3.60;3.30;;;;;;;;;;4973213;28;20062;-62
2023/09/25 03:44:27;;;;;;;2.75;2.55;;;;;;;;;;5022654;28;20030;-62
2023/09/25 03:46:53;;;;;;;3.75;2.80;;;;;;;;;;5039509;28;20030;-62
2023/09/25 03:49:19;;;;;;;2.78;2.58;;;;;;;;;;5040260;28;20034;-62
2023/09/25 03:51:44;;;;;;;3.35;3.03;;;;;;;;;;4973438;28;20080;-62
2023/09/25 03:54:10;;;;;;;5.00;2.95;;;;;;;;;;5039028;28;20066;-62
2023/09/25 03:56:36;;;;;;;4.70;2.88;;;;;;;;;;4973107;28;20376;-63
2023/09/25 03:59:01;;;;;;;2.95;2.75;;;;;;;;;;5039761;28;20049;-63
2023/09/25 04:01:27;;;;;;;2.85;2.70;;;;;;;;;;4972883;28;20046;-62
2023/09/25 04:03:52;;;;;;;3.95;3.00;;;;;;;;;;4972648;28;20030;-62
2023/09/25 04:06:18;;;;;;;3.10;2.80;;;;;;;;;;5045376;28;20036;-63
2023/09/25 04:08:44;;;;;;;3.33;2.72;;;;;;;;;;5074194;28;20467;-63
2023/09/25 04:11:10;;;;;;;2.75;2.55;;;;;;;;;;5056061;28;20052;-63
2023/09/25 04:13:35;;;;;;;3.10;2.88;;;;;;;;;;5074107;28;20021;-63
2023/09/25 04:16:02;;;;;;;3.75;2.80;;;;;;;;;;5055642;28;20030;-63
2023/09/25 04:18:29;;;;;;;3.63;2.65;;;;;;;;;;5073668;28;20033;-62
2023/09/25 04:20:55;;;;;;;3.10;2.90;;;;;;;;;;5073334;28;20035;-63
2023/09/25 04:23:21;;;;;;;4.10;3.13;;;;;;;;;;5074538;28;20031;-63
2023/09/25 04:26:00;;;;;;;3.38;3.10;;;;;;;;;;5074622;28;20450;-64
2023/09/25 04:28:28;;;;;;;2.97;2.78;;;;;;;;;;5074123;28;20466;-63
2023/09/25 04:30:54;;;;;;;2.90;2.70;;;;;;;;;;5074014;28;20029;-63
2023/09/25 04:33:20;;;;;;;3.38;2.55;;;;;;;;;;5073984;28;20032;-63
2023/09/25 04:35:46;;;;;;;3.08;2.88;;;;;;;;;;5038681;28;20028;-59
2023/09/25 04:38:12;;;;;;;3.38;3.08;;;;;;;;;;5073571;28;20047;-61
2023/09/25 04:40:41;;;;;;;3.05;2.83;;;;;;;;;;5074105;28;20021;-61
2023/09/25 04:43:06;;;;;;;3.17;2.85;;;;;;;;;;5073594;28;20482;-62
2023/09/25 04:45:32;;;;;;;2.92;2.70;;;;;;;;;;5039392;28;20036;-62
2023/09/25 04:47:57;;;;;;;3.50;3.05;;;;;;;;;;5073970;28;20047;-62
2023/09/25 04:50:25;;;;;;;3.10;2.80;;;;;;;;;;5073941;28;20029;-63
2023/09/25 04:52:51;;;;;;;3.20;3.00;;;;;;;;;;5073636;28;20032;-63
2023/09/25 04:55:17;;;;;;;3.95;3.20;;;;;;;;;;5073585;28;20031;-60
2023/09/25 04:57:44;;;;;;;2.85;2.65;;;;;;;;;;5072985;28;20032;-60
2023/09/25 05:02:45;;;;;;;3.70;2.90;;;;;;;;;;5072743;28;20020;-60
2023/09/25 05:05:15;;;;;;;4.05;3.40;;;;;;;;;;5072825;28;20490;-60
2023/09/25 05:07:41;;;;;;;3.28;2.80;;;;;;;;;;5058502;28;20112;-60
2023/09/25 05:10:10;;;;;;;3.80;3.50;;;;;;;;;;5053885;28;20079;-59
2023/09/25 05:12:37;;;;;;;3.25;3.05;;;;;;;;;;5055353;28;20024;-60
2023/09/25 05:15:03;;;;;;;3.90;3.28;;;;;;;;;;5073388;28;20036;-60
2023/09/25 05:17:28;;;;;;;4.25;3.05;;;;;;;;;;5076245;28;20028;-60
2023/09/25 05:19:56;;;;;;;3.42;2.90;;;;;;;;;;5077139;28;20390;-60
2023/09/25 05:22:21;;;;;;;5.47;3.30;;;;;;;;;;5077602;28;20017;-61
2023/09/25 05:24:48;;;;;;;4.00;2.83;;;;;;;;;;5076896;28;20435;-62
2023/09/25 05:27:14;;;;;;;3.10;2.90;;;;;;;;;;5077626;28;20024;-59
2023/09/25 05:29:39;;;;;;;4.45;2.97;;;;;;;;;;5059901;28;20459;-59
2023/09/25 05:32:04;;;;;;;3.55;3.25;;;;;;;;;;5055299;28;20029;-59
2023/09/25 05:34:30;;;;;;;3.17;2.95;;;;;;;;;;5055997;28;20352;-59
2023/09/25 05:36:56;;;;;;;5.57;3.50;;;;;;;;;;5054316;28;20033;-58
2023/09/25 05:39:24;;;;;;;3.35;3.05;;;;;;;;;;5071252;28;20021;-59
2023/09/25 05:41:50;;;;;;;5.95;3.80;;;;;;;;;;5074294;28;20470;-59
2023/09/25 05:44:15;;;;;;;3.80;3.47;;;;;;;;;;5075256;28;20020;-61
2023/09/25 05:46:41;;;;;;;3.63;3.33;;;;;;;;;;5076242;28;20344;-62
2023/09/25 05:49:07;;;;;;;3.67;3.40;;;;;;;;;;5075255;28;20020;-62
2023/09/25 05:51:33;;;;;;;3.72;3.42;;;;;;;;;;5076910;28;20085;-62
2023/09/25 05:53:59;;;;;;;3.53;3.33;;;;;;;;;;5076867;28;20036;-62
2023/09/25 05:56:24;;;;;;;5.20;3.22;;;;;;;;;;5077059;28;20028;-62
2023/09/25 05:58:50;;;;;;;3.83;3.53;;;;;;;;;;5076356;28;20527;-62
2023/09/25 06:01:15;;;;;;;3.67;3.30;;;;;;;;;;5076726;28;20059;-62
2023/09/25 06:03:41;;;;;;;4.15;3.88;;;;;;;;;;5075176;28;20025;-62
2023/09/25 06:06:07;;;;;;;5.55;5.00;;;;;;;;;;5074210;28;20040;-62
2023/09/25 06:08:33;;;;;;;4.30;3.75;;;;;;;;;;5056315;28;20075;-62
2023/09/25 06:11:02;;;;;;;4.75;4.35;;;;;;;;;;5074362;28;20064;-62
2023/09/25 06:13:30;;;;;;;5.40;4.53;;;;;;;;;;5074284;28;20071;-62
2023/09/25 06:15:55;;;;;;;4.38;4.05;;;;;;;;;;5074131;28;20077;-62
2023/09/25 06:18:21;;;;;;;4.43;4.00;;;;;;;;;;5074959;28;20036;-62
2023/09/25 06:20:48;;;;;;;4.85;4.05;;;;;;;;;;5076115;28;20024;-62
2023/09/25 06:23:14;;;;;;;4.40;4.07;;;;;;;;;;5076046;28;20020;-62
2023/09/25 06:25:41;;;;;;;4.30;4.00;;;;;;;;;;5076307;28;20060;-62
2023/09/25 06:28:08;;;;;;;7.20;4.18;;;;;;;;;;5075488;28;20029;-62
2023/09/25 06:30:34;;;;;;;5.55;4.20;;;;;;;;;;5076207;28;20036;-62
2023/09/25 06:32:59;;;;;;;4.38;4.07;;;;;;;;;;5075908;28;20040;-61
2023/09/25 06:35:25;;;;;;;4.45;4.15;;;;;;;;;;5075806;28;20029;-62
2023/09/25 06:37:51;;;;;;;4.20;3.80;;;;;;;;;;5058426;28;20016;-61
2023/09/25 06:40:19;;;;;;;5.53;4.45;;;;;;;;;;5075736;28;20056;-62
2023/09/25 06:42:45;;;;;;;4.63;4.22;;;;;;;;;;5075693;28;20033;-61
2023/09/25 06:45:11;;;;;;;4.57;3.88;;;;;;;;;;5057721;28;20052;-61
2023/09/25 06:47:36;;;;;;;4.70;4.13;;;;;;;;;;5057670;28;20055;-61
2023/09/25 06:50:02;;;;;;;4.30;3.92;;;;;;;;;;5075557;28;20036;-61
2023/09/25 06:52:28;;;;;;;4.53;4.13;;;;;;;;;;5075823;28;20033;-61
2023/09/25 06:54:53;;;;;;;4.50;4.20;;;;;;;;;;5075469;28;20082;-61
2023/09/25 06:57:18;;;;;;;4.30;3.90;;;;;;;;;;5075610;28;20020;-61
2023/09/25 06:59:44;;;;;;;4.47;4.18;;;;;;;;;;5075650;28;20036;-61
2023/09/25 07:02:10;;;;;;;6.13;4.60;;;;;;;;;;5075624;28;20029;-61
2023/09/25 07:04:36;;;;;;;5.63;5.13;;;;;;;;;;5075373;28;20111;-61
2023/09/25 07:07:02;;;;;;;6.50;4.22;;;;;;;;;;5075241;28;20517;-61
2023/09/25 07:09:27;;;;;;;5.18;4.55;;;;;;;;;;5075211;28;20059;-61
2023/09/25 07:11:53;;;;;;;5.70;5.18;;;;;;;;;;5075364;28;20065;-61
2023/09/25 07:14:18;;;;;;;4.85;4.30;;;;;;;;;;5075030;28;20110;-61
2023/09/25 07:16:44;;;;;;;5.25;4.40;;;;;;;;;;5057210;28;20360;-61
2023/09/25 07:19:10;;;;;;;5.40;4.18;;;;;;;;;;5074901;28;20043;-61
2023/09/25 07:21:36;;;;;;;4.68;4.30;;;;;;;;;;5074927;28;20028;-61
2023/09/25 07:24:01;;;;;;;4.65;4.13;;;;;;;;;;5075440;28;20091;-61
2023/09/25 07:26:27;;;;;;;5.63;5.13;;;;;;;;;;5075109;28;20024;-61
2023/09/25 07:28:52;;;;;;;3.92;3.63;;;;;;;;;;5074738;28;20467;-61
2023/09/25 07:31:24;;;;;;;4.50;4.13;;;;;;;;;;5074841;28;20028;-61
2023/09/25 07:33:55;;;;;;;4.47;4.07;;;;;;;;;;5056785;28;20086;-61
2023/09/25 07:36:21;;;;;;;5.15;4.65;;;;;;;;;;5074912;28;20060;-61
2023/09/25 07:38:47;;;;;;;4.25;3.97;;;;;;;;;;5056658;28;20039;-61
2023/09/25 07:41:12;;;;;;;4.35;4.05;;;;;;;;;;5073576;28;20032;-61
2023/09/25 07:43:40;;;;;;;4.35;3.92;;;;;;;;;;5074480;28;20021;-61
2023/09/25 07:46:06;;;;;;;5.10;4.07;;;;;;;;;;5074753;28;20111;-61
2023/09/25 07:48:32;;;;;;;5.00;4.47;;;;;;;;;;5074632;28;20112;-61
2023/09/25 07:50:58;;;;;;;4.65;4.35;;;;;;;;;;5074613;28;20348;-61
2023/09/25 07:53:24;;;;;;;4.47;4.18;;;;;;;;;;5074856;28;20039;-61
2023/09/25 07:55:51;;;;;;;4.28;4.07;;;;;;;;;;5074839;28;20033;-61
2023/09/25 07:58:16;;;;;;;6.10;4.07;;;;;;;;;;5074143;28;20033;-61
2023/09/25 08:00:44;;;;;;;4.55;4.13;;;;;;;;;;5074436;28;20031;-61
2023/09/25 08:03:13;;;;;;;4.50;4.20;;;;;;;;;;5056363;28;20100;-62
2023/09/25 08:05:40;;;;;;;4.72;4.35;;;;;;;;;;5073918;28;20040;-61
2023/09/25 08:08:05;;;;;;;4.82;4.43;;;;;;;;;;5074325;28;20028;-61
2023/09/25 08:10:32;;;;;;;6.70;4.57;;;;;;;;;;5056097;28;20021;-61
2023/09/25 08:12:57;;;;;;;5.38;4.88;;;;;;;;;;5074044;28;20067;-62
2023/09/25 08:15:23;;;;;;;4.68;4.28;;;;;;;;;;5074515;28;20066;-61
2023/09/25 08:17:48;;;;;;;5.50;5.10;;;;;;;;;;5073871;28;20028;-61
2023/09/25 08:20:17;;;;;;;6.55;4.60;;;;;;;;;;5074194;28;20339;-61
2023/09/25 08:22:43;;;;;;;5.05;4.65;;;;;;;;;;5074442;28;20053;-61
2023/09/25 08:25:09;;;;;;;5.10;4.60;;;;;;;;;;5074114;28;20429;-61
2023/09/25 08:27:37;;;;;;;5.38;4.88;;;;;;;;;;5074375;28;20035;-61
2023/09/25 08:30:04;;;;;;;5.43;4.68;;;;;;;;;;5074053;28;20048;-61
2023/09/25 08:32:31;;;;;;;5.07;4.68;;;;;;;;;;5074000;28;20062;-61
2023/09/25 08:34:56;;;;;;;5.05;4.75;;;;;;;;;;5073689;28;20107;-61
2023/09/25 08:37:21;;;;;;;6.28;4.90;;;;;;;;;;5073617;28;20112;-61
2023/09/25 08:39:47;;;;;;;5.03;4.72;;;;;;;;;;5073666;28;20471;-61
2023/09/25 08:42:12;;;;;;;5.30;4.80;;;;;;;;;;5073633;28;20024;-61
2023/09/25 08:44:38;;;;;;;5.20;4.68;;;;;;;;;;5073843;28;20103;-61
2023/09/25 08:47:03;;;;;;;5.32;4.93;;;;;;;;;;5073597;28;20020;-62
2023/09/25 08:49:31;;;;;;;5.57;5.00;;;;;;;;;;5073845;28;20410;-61
2023/09/25 08:51:57;;;;;;;4.68;4.30;;;;;;;;;;5073396;28;20390;-61
2023/09/25 08:54:22;;;;;;;4.70;4.32;;;;;;;;;;5073791;28;20020;-61
2023/09/25 08:56:48;;;;;;;5.07;4.63;;;;;;;;;;5073775;28;20033;-61
2023/09/25 08:59:14;;;;;;;4.75;4.45;;;;;;;;;;5073961;28;20463;-61
2023/09/25 09:01:40;;;;;;;4.50;4.20;;;;;;;;;;5055890;28;20108;-61
2023/09/25 09:04:06;;;;;;;3.97;3.67;;;;;;;;;;5073355;28;20477;-61
2023/09/25 09:06:32;;;;;;;4.95;4.65;;;;;;;;;;5073330;28;20135;-61
2023/09/25 09:08:57;;;;;;;4.35;4.05;;;;;;;;;;5073645;28;20112;-61
2023/09/25 09:11:23;;;;;;;3.70;3.40;;;;;;;;;;5073370;28;20054;-61
2023/09/25 09:13:48;;;;;;;4.00;3.70;;;;;;;;;;5073355;28;20061;-61
2023/09/25 09:16:15;;;;;;;4.25;3.65;;;;;;;;;;5073617;28;20037;-61
2023/09/25 09:18:41;;;;;;;4.20;3.90;;;;;;;;;;5071970;28;20106;-61
2023/09/25 09:21:08;;;;;;;4.18;3.80;;;;;;;;;;5073524;28;20024;-61
2023/09/25 09:23:42;;;;;;;3.60;3.30;;;;;;;;;;5073514;28;20430;-61
2023/09/25 09:26:09;;;;;;;4.32;3.55;;;;;;;;;;5073227;28;20035;-61
2023/09/25 09:28:34;;;;;;;3.97;3.55;;;;;;;;;;5073456;28;20077;-61
2023/09/25 09:31:00;;;;;;;4.75;3.20;;;;;;;;;;5073476;28;20424;-61
2023/09/25 09:33:29;;;;;;;4.00;3.30;;;;;;;;;;5055309;28;20024;-61
2023/09/25 09:35:54;;;;;;;3.40;3.10;;;;;;;;;;5073107;28;20036;-61
2023/09/25 09:38:21;;;;;;;3.45;3.15;;;;;;;;;;5073307;28;20036;-61
2023/09/25 09:40:48;;;;;;;3.03;2.92;;;;;;;;;;5073081;28;20017;-61
2023/09/25 09:43:13;;;;;;;3.45;3.20;;;;;;;;;;5073052;28;20029;-61
2023/09/25 09:45:39;;;;;;;3.45;3.15;;;;;;;;;;5055415;28;20123;-61
2023/09/25 09:48:06;;;;;;;3.30;3.00;;;;;;;;;;5073011;28;20033;-61
2023/09/25 09:50:33;;;;;;;4.20;3.03;;;;;;;;;;5073022;28;20032;-61
2023/09/25 09:52:59;;;;;;;3.20;2.95;;;;;;;;;;5072984;28;20035;-61
2023/09/25 09:55:27;;;;;;;3.58;3.30;;;;;;;;;;5073239;28;20423;-61
2023/09/25 09:57:54;;;;;;;3.67;3.30;;;;;;;;;;5072807;28;20025;-61
2023/09/25 10:00:20;;;;;;;3.67;3.42;;;;;;;;;;5073170;28;20558;-61
2023/09/25 10:02:49;;;;;;;6.38;4.55;;;;;;;;;;5073367;28;20081;-61
2023/09/25 10:05:15;;;;;;;6.07;5.30;;;;;;;;;;5058873;28;20119;-61
2023/09/25 10:07:58;;;;;;;5.00;4.32;;;;;;;;;;5076691;28;20037;-61
2023/09/25 10:10:24;;;;;;;5.68;4.20;;;;;;;;;;5076324;28;20039;-61
2023/09/25 10:12:50;;;;;;;5.88;4.60;;;;;;;;;;5076597;28;20047;-61
2023/09/25 10:15:22;;;;;;;5.57;4.47;;;;;;;;;;5058320;28;20028;-61
2023/09/25 10:17:48;;;;;;;6.22;5.63;;;;;;;;;;5076444;28;20033;-61
2023/09/25 10:20:41;;;;;;;7.30;4.93;;;;;;;;;;5058202;28;20043;-61
2023/09/25 10:23:06;;;;;;;4.32;3.72;;;;;;;;;;5058239;28;20036;-61
2023/09/25 10:25:44;;;;;;;3.95;3.58;;;;;;;;;;5076295;28;20040;-61
2023/09/25 10:28:14;;;;;;;4.10;3.80;;;;;;;;;;5058189;28;20085;-61
2023/09/25 10:30:40;;;;;;;3.90;3.58;;;;;;;;;;5076231;28;20115;-61
2023/09/25 10:33:05;;;;;;;4.07;3.72;;;;;;;;;;5076224;28;20028;-61
2023/09/25 10:35:37;;;;;;;13.40;4.10;;;;;;;;;;5075862;28;20497;-61
2023/09/25 10:38:09;;;;;;;5.07;4.57;;;;;;;;;;5076016;28;20024;-61
2023/09/25 10:40:36;;;;;;;7.32;4.00;;;;;;;;;;5075786;28;20111;-61
2023/09/25 10:43:01;;;;;;;4.32;3.92;;;;;;;;;;5075962;28;20024;-61
2023/09/25 10:45:27;;;;;;;3.95;3.50;;;;;;;;;;5075975;28;20030;-61
2023/09/25 10:47:52;;;;;;;3.67;3.38;;;;;;;;;;5075634;28;20032;-61
2023/09/25 10:50:18;;;;;;;3.28;3.05;;;;;;;;;;5075902;28;20030;-61
2023/09/25 10:52:43;;;;;;;3.88;3.58;;;;;;;;;;5075799;28;20052;-61
2023/09/25 10:55:10;;;;;;;4.35;3.97;;;;;;;;;;5075538;28;20029;-61
2023/09/25 10:57:36;;;;;;;4.28;3.90;;;;;;;;;;5058119;28;20046;-61
2023/09/25 11:00:09;;;;;;;5.47;3.80;;;;;;;;;;5075413;28;20063;-61
2023/09/25 11:02:34;;;;;;;4.75;4.13;;;;;;;;;;5075355;28;20466;-61
2023/09/25 11:05:04;;;;;;;5.25;3.70;;;;;;;;;;5075172;28;20035;-61
2023/09/25 11:07:29;;;;;;;4.22;3.83;;;;;;;;;;5075582;28;20036;-61
2023/09/25 11:09:55;;;;;;;4.95;3.95;;;;;;;;;;5075455;28;20032;-58
2023/09/25 11:12:20;;;;;;;3.95;3.55;;;;;;;;;;5075421;28;20040;-58
2023/09/25 11:14:46;;;;;;;5.60;4.10;;;;;;;;;;5074816;28;20106;-58
2023/09/25 11:17:11;;;;;;;5.75;3.92;;;;;;;;;;5075185;28;20470;-58
2023/09/25 11:19:37;;;;;;;4.25;3.85;;;;;;;;;;5075286;28;20036;-58
2023/09/25 11:22:03;;;;;;;4.15;3.80;;;;;;;;;;5057390;28;20033;-58
2023/09/25 11:24:30;;;;;;;5.55;3.67;;;;;;;;;;5075448;28;20027;-58
2023/09/25 11:26:56;;;;;;;4.63;4.20;;;;;;;;;;5074857;28;20025;-58
2023/09/25 11:29:29;;;;;;;4.70;3.60;;;;;;;;;;5075027;28;20040;-58
2023/09/25 11:31:55;;;;;;;4.38;3.70;;;;;;;;;;5074991;28;20032;-58
2023/09/25 11:34:20;;;;;;;3.67;3.38;;;;;;;;;;5074681;28;20029;-58
2023/09/25 11:36:45;;;;;;;4.13;3.60;;;;;;;;;;5074657;28;20032;-58
2023/09/25 11:39:16;;;;;;;4.82;3.90;;;;;;;;;;5074517;28;20106;-58
2023/09/25 11:41:42;;;;;;;4.50;3.67;;;;;;;;;;5057023;28;20056;-58
2023/09/25 11:44:09;;;;;;;4.28;3.83;;;;;;;;;;5074512;28;20071;-58
2023/09/25 11:46:34;;;;;;;8.85;3.85;;;;;;;;;;5074719;28;20082;-58
2023/09/25 11:49:00;;;;;;;4.50;3.60;;;;;;;;;;5074416;28;20386;-58
2023/09/25 11:51:26;;;;;;;6.63;3.53;;;;;;;;;;5056445;28;20123;-58
2023/09/25 11:53:52;;;;;;;3.83;3.53;;;;;;;;;;5074877;28;20036;-58
2023/09/25 11:56:17;;;;;;;4.10;3.40;;;;;;;;;;5074866;28;20040;-58
2023/09/25 11:58:43;;;;;;;3.95;3.65;;;;;;;;;;5074749;28;20067;-58
2023/09/25 12:01:08;;;;;;;3.63;3.33;;;;;;;;;;5056945;28;20086;-58
2023/09/25 12:03:38;;;;;;;4.35;3.85;;;;;;;;;;5074434;28;20029;-58
2023/09/25 12:06:07;;;;;;;4.25;3.95;;;;;;;;;;5073996;28;20041;-58
2023/09/25 12:08:33;;;;;;;5.72;3.25;;;;;;;;;;5074346;28;20090;-58
2023/09/25 12:10:58;;;;;;;5.85;3.70;;;;;;;;;;5074314;28;20033;-58
2023/09/25 12:13:24;;;;;;;4.10;3.80;;;;;;;;;;5073966;28;20524;-58
2023/09/25 12:15:50;;;;;;;5.82;4.07;;;;;;;;;;5073932;28;20020;-58
2023/09/25 12:18:15;;;;;;;6.55;3.70;;;;;;;;;;5073827;28;20028;-58
2023/09/25 12:20:41;;;;;;;4.10;3.80;;;;;;;;;;5055907;28;20446;-58
2023/09/25 12:23:07;;;;;;;4.03;3.60;;;;;;;;;;5073885;28;20024;-58
2023/09/25 12:25:32;;;;;;;3.50;3.20;;;;;;;;;;5073664;28;20473;-58
2023/09/25 12:27:58;;;;;;;4.07;3.45;;;;;;;;;;5073634;28;20031;-58
2023/09/25 12:30:24;;;;;;;3.67;3.30;;;;;;;;;;5074051;28;20043;-58
2023/09/25 12:32:49;;;;;;;4.43;3.92;;;;;;;;;;5073727;28;20429;-58
2023/09/25 12:35:15;;;;;;;3.97;3.58;;;;;;;;;;5073741;28;20032;-58
2023/09/25 12:37:52;;;;;;;6.15;3.60;;;;;;;;;;5073642;28;20036;-59
2023/09/25 12:40:17;;;;;;;5.57;4.03;;;;;;;;;;5073981;28;20060;-59
2023/09/25 12:42:44;;;;;;;4.30;3.83;;;;;;;;;;5073906;28;20044;-58
2023/09/25 12:45:11;;;;;;;3.95;3.65;;;;;;;;;;5073970;28;20254;-58
2023/09/25 12:47:36;;;;;;;3.85;3.50;;;;;;;;;;5056057;28;20036;-58
2023/09/25 12:50:02;;;;;;;4.93;3.70;;;;;;;;;;5073597;28;20402;-58
2023/09/25 12:52:30;;;;;;;3.97;3.67;;;;;;;;;;5073582;28;20032;-58
2023/09/25 12:54:56;;;;;;;4.88;3.63;;;;;;;;;;5073860;28;20021;-58
2023/09/25 12:57:22;;;;;;;6.53;3.60;;;;;;;;;;5055432;28;20119;-58
2023/09/25 12:59:47;;;;;;;4.25;3.85;;;;;;;;;;5074074;28;20032;-58
2023/09/25 13:02:13;;;;;;;4.18;3.88;;;;;;;;;;5073730;28;20025;-59
2023/09/25 13:04:38;;;;;;;4.10;3.15;;;;;;;;;;5055438;28;20501;-59
2023/09/25 13:07:03;;;;;;;3.72;3.42;;;;;;;;;;5073144;28;20387;-58
2023/09/25 13:09:29;;;;;;;3.55;3.35;;;;;;;;;;5055180;28;20477;-59
2023/09/25 13:11:55;;;;;;;4.07;3.78;;;;;;;;;;5055869;28;20032;-59
2023/09/25 13:14:21;;;;;;;5.13;3.97;;;;;;;;;;5053259;28;20031;-59
2023/09/25 13:16:47;;;;;;;4.47;3.67;;;;;;;;;;5071924;28;20720;-59
2023/09/25 13:19:12;;;;;;;3.95;3.55;;;;;;;;;;5062999;28;20033;-59
2023/09/25 13:21:38;;;;;;;4.75;3.55;;;;;;;;;;5069097;28;20126;-59
2023/09/25 13:24:04;;;;;;;5.30;4.18;;;;;;;;;;5052014;28;20347;-62
2023/09/25 13:26:29;;;;;;;4.57;4.13;;;;;;;;;;5069607;28;20033;-62
2023/09/25 13:28:55;;;;;;;5.90;3.78;;;;;;;;;;5069481;28;20016;-61
2023/09/25 13:31:21;;;;;;;6.20;5.30;;;;;;;;;;5069616;28;20093;-61
2023/09/25 13:33:47;;;;;;;6.60;4.50;;;;;;;;;;5069337;28;20039;-62
2023/09/25 13:36:13;;;;;;;7.40;5.50;;;;;;;;;;5069032;28;20029;-61
2023/09/25 13:38:38;;;;;;;5.18;4.72;;;;;;;;;;5053814;28;20032;-61
2023/09/25 13:41:04;;;;;;;5.13;4.45;;;;;;;;;;5073358;28;20043;-62
2023/09/25 13:43:30;;;;;;;6.15;4.20;;;;;;;;;;5073327;28;20024;-62
2023/09/25 13:45:56;;;;;;;4.82;4.10;;;;;;;;;;5072080;28;20025;-63
2023/09/25 13:48:22;;;;;;;4.97;4.53;;;;;;;;;;5071827;28;20029;-62
2023/09/25 13:50:47;;;;;;;6.15;4.75;;;;;;;;;;5073128;28;20036;-62
2023/09/25 13:53:13;;;;;;;4.43;3.97;;;;;;;;;;5072818;28;20043;-62
2023/09/25 13:55:38;;;;;;;6.68;4.70;;;;;;;;;;5073788;28;20030;-62
2023/09/25 13:58:04;;;;;;;5.03;4.40;;;;;;;;;;5074393;28;20033;-62
2023/09/25 14:00:32;;;;;;;6.97;4.68;;;;;;;;;;5073509;28;20533;-58
2023/09/25 14:02:57;;;;;;;4.60;4.30;;;;;;;;;;5039137;28;20021;-61
2023/09/25 14:05:23;;;;;;;5.97;5.35;;;;;;;;;;5054732;28;20036;-62
2023/09/25 14:07:48;;;;;;;6.85;6.20;;;;;;;;;;5072630;28;20038;-62
2023/09/25 14:10:13;;;;;;;7.88;5.93;;;;;;;;;;5072818;28;20086;-62
2023/09/25 14:12:40;;;;;;;8.20;5.75;;;;;;;;;;5072925;28;20509;-62
2023/09/25 14:15:10;;;;;;;7.53;6.60;;;;;;;;;;5072291;28;20044;-62
2023/09/25 14:17:35;;;;;;;5.65;5.18;;;;;;;;;;5072199;28;20417;-62
2023/09/25 14:20:00;;;;;;;21.08;12.20;;;;;;;;;;5072548;28;20139;-62
2023/09/25 14:22:26;;;;;;;17.40;12.95;;;;;;;;;;5072428;28;20438;-62
2023/09/25 14:24:51;;;;;;;11.50;10.27;;;;;;;;;;5071771;28;20032;-62
2023/09/25 14:27:17;;;;;;;8.80;7.00;;;;;;;;;;5072052;28;20108;-62
2023/09/25 14:29:42;;;;;;;33.28;20.80;;;;;;;;;;5072388;28;20021;-62
2023/09/25 14:32:07;;;;;;;27.33;17.08;;;;;;;;;;5072299;28;20052;-62
2023/09/25 14:34:33;;;;;;;8.50;6.68;;;;;;;;;;5072412;28;20107;-62
2023/09/25 14:36:58;;;;;;;7.22;5.80;;;;;;;;;;5072545;28;20487;-62
2023/09/25 14:39:28;;;;;;;5.97;5.47;;;;;;;;;;5072094;28;20039;-62